地図

経路データ

SID SEASON NUMBER BASIN SUBBASIN NAME ISO_TIME NATURE LAT LON WMO_WIND WMO_PRES WMO_AGENCY TRACK_TYPE DIST2LAND LANDFALL IFLAG USA_AGENCY USA_ATCF_ID USA_LAT USA_LON USA_RECORD USA_STATUS USA_WIND USA_PRES USA_SSHS USA_R34_NE USA_R34_SE USA_R34_SW USA_R34_NW USA_R50_NE USA_R50_SE USA_R50_SW USA_R50_NW USA_R64_NE USA_R64_SE USA_R64_SW USA_R64_NW USA_POCI USA_ROCI USA_RMW USA_EYE TOKYO_LAT TOKYO_LON TOKYO_GRADE TOKYO_WIND TOKYO_PRES TOKYO_R50_DIR TOKYO_R50_LONG TOKYO_R50_SHORT TOKYO_R30_DIR TOKYO_R30_LONG TOKYO_R30_SHORT TOKYO_LAND CMA_LAT CMA_LON CMA_CAT CMA_WIND CMA_PRES HKO_LAT HKO_LON HKO_CAT HKO_WIND HKO_PRES NEWDELHI_LAT NEWDELHI_LON NEWDELHI_GRADE NEWDELHI_WIND NEWDELHI_PRES NEWDELHI_CI NEWDELHI_DP NEWDELHI_POCI REUNION_LAT REUNION_LON REUNION_TYPE REUNION_WIND REUNION_PRES REUNION_TNUM REUNION_CI REUNION_RMW REUNION_R34_NE REUNION_R34_SE REUNION_R34_SW REUNION_R34_NW REUNION_R50_NE REUNION_R50_SE REUNION_R50_SW REUNION_R50_NW REUNION_R64_NE REUNION_R64_SE REUNION_R64_SW REUNION_R64_NW BOM_LAT BOM_LON BOM_TYPE BOM_WIND BOM_PRES BOM_TNUM BOM_CI BOM_RMW BOM_R34_NE BOM_R34_SE BOM_R34_SW BOM_R34_NW BOM_R50_NE BOM_R50_SE BOM_R50_SW BOM_R50_NW BOM_R64_NE BOM_R64_SE BOM_R64_SW BOM_R64_NW BOM_ROCI BOM_POCI BOM_EYE BOM_POS_METHOD BOM_PRES_METHOD NADI_LAT NADI_LON NADI_CAT NADI_WIND NADI_PRES WELLINGTON_LAT WELLINGTON_LON WELLINGTON_WIND WELLINGTON_PRES DS824_LAT DS824_LON DS824_STAGE DS824_WIND DS824_PRES TD9636_LAT TD9636_LON TD9636_STAGE TD9636_WIND TD9636_PRES TD9635_LAT TD9635_LON TD9635_WIND TD9635_PRES TD9635_ROCI NEUMANN_LAT NEUMANN_LON NEUMANN_CLASS NEUMANN_WIND NEUMANN_PRES MLC_LAT MLC_LON MLC_CLASS MLC_WIND MLC_PRES USA_GUST BOM_GUST BOM_GUST_PER REUNION_GUST REUNION_GUST_PER USA_SEAHGT USA_SEARAD_NE USA_SEARAD_SE USA_SEARAD_SW USA_SEARAD_NW STORM_SPEED STORM_DIR
1969008S12179 1969 1 SP MM NOT_NAMED 1969-01-07 12:00:00 TS -12.0000 179.200 main 474 460 O________O__O_ jtwc_sh SH131969 -12.0000 179.200 -1 -12.0000 179.200 TC 35 -12.0000 179.200 TC 20 7 109
1969008S12179 1969 1 SP MM NOT_NAMED 1969-01-07 15:00:00 TS -12.1151 179.534 main 460 447 P________P__P_ SH131969 -12.1152 179.582 -1 -12.1152 179.582 TC 35 -12.1150 179.437 TC 20 6 108
1969008S12179 1969 1 SP MM NOT_NAMED 1969-01-07 18:00:00 TS -12.1800 179.770 main 447 447 O________OO_O_ jtwc_sh SH131969 -12.2000 179.900 -1 -12.2000 179.900 TC 35 -12.0000 179.200 2 -12.2000 179.700 TC 20 5 101
1969008S12179 1969 1 SP MM NOT_NAMED 1969-01-07 21:00:00 TS -12.2033 180.010 main 447 447 P________PP_P_ SH131969 -12.2174 -179.910 -1 -12.2174 -179.910 TC 35 -12.1185 179.759 2 -12.2175 179.975 TC 22 3 76
1969008S12179 1969 1 SP MM NOT_NAMED 1969-01-08 00:00:00 TS -12.1000 180.100 main 459 459 O________OO_O_ jtwc_sh SH131969 -12.1000 -179.900 -1 -12.1000 180.100 TC 35 -12.1000 -179.900 2 -12.1000 -179.900 TC 25 4 350
1969008S12179 1969 1 SP MM NOT_NAMED 1969-01-08 03:00:00 TS -11.8094 179.943 main 492 492 P________PP_P_ SH131969 -11.7951 179.895 -1 -11.7951 179.895 TC 35 -11.8523 -179.929 2 -11.7951 179.910 TC 25 8 327
1969008S12179 1969 1 SP MM NOT_NAMED 1969-01-08 06:00:00 TS -11.4137 179.647 main 537 537 O________OP_O_ jtwc_sh SH131969 -11.4000 179.600 -1 -11.4000 179.600 TC 35 -11.4548 179.788 2 -11.4000 179.600 TC 25 10 324
1969008S12179 1969 1 SP MM NOT_NAMED 1969-01-08 09:00:00 TS -11.0018 179.353 main 583 583 P________PP_P_ SH131969 -10.9900 179.325 -1 -10.9900 179.325 TC 35 -11.0298 179.437 2 -10.9975 179.325 TC 27 8 328
1969008S12179 1969 1 SP MM NOT_NAMED 1969-01-08 12:00:00 TS -10.7000 179.200 main 619 617 O________OO_O_ jtwc_sh SH131969 -10.7000 179.200 -1 -10.7000 179.200 TC 35 -10.7000 179.200 2 -10.7000 179.200 TC 30 3 0
1969008S12179 1969 1 SP MM NOT_NAMED 1969-01-08 15:00:00 TS -10.6731 179.367 main 617 604 P________PP_P_ SH131969 -10.6900 179.375 -1 -10.6900 179.375 TC 35 -10.6798 179.343 2 -10.6325 179.375 TC 30 5 98
1969008S12179 1969 1 SP MM NOT_NAMED 1969-01-08 18:00:00 TS -10.7657 179.681 main 604 593 O________OP_O_ jtwc_sh SH131969 -10.8000 179.700 -1 -10.8000 179.700 TC 35 -10.7628 179.622 2 -10.7000 179.700 TC 30 6 108
1969008S12179 1969 1 SP MM NOT_NAMED 1969-01-08 21:00:00 TS -10.8711 179.993 main 593 593 P________PP_P_ SH131969 -10.8950 -179.993 -1 -10.8950 -179.993 TC 35 -10.8643 179.965 2 -10.8300 179.992 TC 32 6 102
1969008S12179 1969 1 SP MM NOT_NAMED 1969-01-09 00:00:00 TS -10.9000 180.300 main 594 594 O________OO_O_ jtwc_sh SH131969 -10.9000 -179.700 -1 -10.9000 180.300 TC 35 -10.9000 -179.700 2 -10.9000 -179.700 TC 35 6 74
1969008S12179 1969 1 SP MM NOT_NAMED 1969-01-09 03:00:00 TS -10.7092 180.561 main 620 620 P________PP_P_ SH131969 -10.6875 -179.485 -1 -10.6875 -179.485 TC 35 -10.7094 -179.417 2 -10.7525 -179.370 TC 35 7 46
1969008S12179 1969 1 SP MM NOT_NAMED 1969-01-09 06:00:00 TS -10.4375 180.784 main 656 656 O________OP_O_ jtwc_sh SH131969 -10.4000 -179.300 -1 -10.4000 180.700 TC 35 -10.4500 -179.164 2 -10.5000 -179.100 TC 35 7 40
1969008S12179 1969 1 SP MM NOT_NAMED 1969-01-09 09:00:00 TS -10.1858 181.004 main 682 682 P________PP_P_ SH131969 -10.1625 -179.040 -1 -10.1625 -179.040 TC 35 -10.1906 -178.980 2 -10.2274 -178.925 TC 37 5 35
1969008S12179 1969 1 SP MM NOT_NAMED 1969-01-09 12:00:00 TS -10.0000 181.100 main 706 706 O________OO_O_ jtwc_sh SH131969 -10.0000 -178.900 -1 -10.0000 181.100 TC 35 -10.0000 -178.900 2 -10.0000 -178.900 TC 40 3 348
1969008S12179 1969 1 SP MM NOT_NAMED 1969-01-09 15:00:00 TS -9.93770 180.949 main 713 699 P________PP_P_ SH131969 -9.95503 -179.048 -1 -9.95503 -179.048 TC 35 -9.95070 -179.044 2 -9.89004 -179.063 TC 40 4 274
1969008S12179 1969 1 SP MM NOT_NAMED 1969-01-09 18:00:00 TS -9.97003 180.705 main 699 697 O________OP_O_ jtwc_sh SH131969 -10.0000 -179.300 -1 -10.0000 180.700 TC 35 -9.98011 -179.280 2 -9.90000 -179.300 TC 40 5 256
1969008S12179 1969 1 SP MM NOT_NAMED 1969-01-09 21:00:00 TS -10.0536 180.483 main 686 673 P________PP_P_ SH131969 -10.0700 -179.525 -1 -10.0700 -179.525 TC 35 -10.0694 -179.500 2 -10.0050 -179.517 TC 42 4 233
1969008S12179 1969 1 SP MM NOT_NAMED 1969-01-10 00:00:00 TS -10.2000 180.400 main 673 652 O________OO_O_ jtwc_sh SH131969 -10.2000 -179.600 -1 -10.2000 180.400 TC 35 -10.2000 -179.600 2 -10.2000 -179.600 TC 45 4 163
1969008S12179 1969 1 SP MM NOT_NAMED 1969-01-10 03:00:00 TS -10.3995 180.599 main 653 634 P________PP_P_ SH131969 -10.3926 -179.368 -1 -10.3926 -179.368 TC 35 -10.3554 -179.445 2 -10.4575 -179.425 TC 45 7 128
1969008S12179 1969 1 SP MM NOT_NAMED 1969-01-10 06:00:00 TS -10.6107 180.936 main 636 620 O________OP_O_ jtwc_sh SH131969 -10.6000 -179.000 -1 -10.6000 181.000 TC 35 -10.5426 -179.158 2 -10.7000 -179.100 TC 45 8 120
1969008S12179 1969 1 SP MM NOT_NAMED 1969-01-10 09:00:00 TS -10.7771 181.257 main 623 615 P________PP_P_ SH131969 -10.7724 -178.707 -1 -10.7724 -178.707 TC 35 -10.7336 -178.792 2 -10.8300 -178.765 TC 47 7 114
1969008S12179 1969 1 SP MM NOT_NAMED 1969-01-10 12:00:00 TS -10.9000 181.600 main 621 621 O________OO_O_ jtwc_sh SH131969 -10.9000 -178.400 -1 -10.9000 181.600 TC 35 -10.9000 -178.400 2 -10.9000 -178.400 TC 50 7 106
1969008S12179 1969 1 SP MM NOT_NAMED 1969-01-10 15:00:00 TS -10.9662 181.949 main 621 601 P________PP_P_ SH131969 -10.9575 -178.057 -1 -10.9575 -178.057 TC 35 -10.9998 -178.040 2 -10.9500 -178.050 TC 50 7 100
1969008S12179 1969 1 SP MM NOT_NAMED 1969-01-10 18:00:00 TS -11.0182 182.308 main 601 558 O________OP_O_ jtwc_sh SH131969 -11.0000 -177.700 -1 -11.0000 182.300 TC 35 -11.0727 -177.670 2 -11.0000 -177.700 TC 50 7 101
1969008S12179 1969 1 SP MM NOT_NAMED 1969-01-10 21:00:00 TS -11.1029 182.672 main 558 524 P________PP_P_ SH131969 -11.0925 -177.335 -1 -11.0925 -177.335 TC 35 -11.1342 -177.315 2 -11.0925 -177.328 TC 47 7 105
1969008S12179 1969 1 SP MM NOT_NAMED 1969-01-11 00:00:00 TS -11.2000 183.000 main 524 490 O________OO_O_ jtwc_sh SH131969 -11.2000 -177.000 -1 -11.2000 183.000 TC 35 -11.2000 -177.000 2 -11.2000 -177.000 TC 45 6 108
1969008S12179 1969 1 SP MM NOT_NAMED 1969-01-11 03:00:00 TS -11.2981 183.272 main 490 465 P________PP_P_ SH131969 -11.3000 -176.720 -1 -11.3000 -176.720 TC 35 -11.2927 -176.696 2 -11.2999 -176.777 TC 45 5 112
1969008S12179 1969 1 SP MM NOT_NAMED 1969-01-11 06:00:00 TS -11.3981 183.489 main 465 441 O________OP_O_ jtwc_sh SH131969 -11.4000 -176.500 -1 -11.4000 183.500 TC 35 -11.3923 -176.443 2 -11.4000 -176.600 TC 45 5 116
1969008S12179 1969 1 SP MM NOT_NAMED 1969-01-11 09:00:00 TS -11.4990 183.699 main 441 426 P________PP_P_ SH131969 -11.5000 -176.290 -1 -11.5000 -176.290 TC 35 -11.4958 -176.268 2 -11.5000 -176.355 TC 42 4 124
1969008S12179 1969 1 SP MM NOT_NAMED 1969-01-11 12:00:00 TS -11.6000 183.800 main 426 420 O________OO_O_ jtwc_sh SH131969 -11.6000 -176.200 -1 -11.6000 183.800 TC 35 -11.6000 -176.200 2 -11.6000 -176.200 TC 40 2 175
1969008S12179 1969 1 SP MM NOT_NAMED 1969-01-11 15:00:00 TS -11.6919 183.718 main 430 430 P________PP_P_ SH131969 -11.7000 -176.297 -1 -11.7000 -176.297 TC 35 -11.6676 -176.300 2 -11.7000 -176.232 TC 40 3 235
1969008S12179 1969 1 SP MM NOT_NAMED 1969-01-11 18:00:00 TS -11.7851 183.526 main 444 444 O________OP_O_ jtwc_sh SH131969 -11.8000 -176.500 -1 -11.8000 183.500 TC 35 -11.7402 -176.497 2 -11.8000 -176.400 TC 40 4 247
1969008S12179 1969 1 SP MM NOT_NAMED 1969-01-11 21:00:00 TS -11.8670 183.298 main 459 459 P________PP_P_ SH131969 -11.8775 -176.715 -1 -11.8775 -176.715 TC 35 -11.8427 -176.721 2 -11.8701 -176.658 TC 40 5 243
1969008S12179 1969 1 SP MM NOT_NAMED 1969-01-12 00:00:00 TS -12.0000 183.100 main 475 471 O________OO_O_ jtwc_sh SH131969 -12.0000 -176.900 -1 -12.0000 183.100 TC 35 -12.0000 -176.900 2 -12.0000 -176.900 TC 40 5 218
1969008S12179 1969 1 SP MM NOT_NAMED 1969-01-12 03:00:00 TS -12.2393 183.002 main 478 468 P________PP_P_ SH131969 -12.2125 -176.995 -1 -12.2125 -176.995 TC 35 -12.2625 -177.001 2 -12.2700 -177.002 TC 37 6 191
1969008S12179 1969 1 SP MM NOT_NAMED 1969-01-12 06:00:00 TS -12.5442 182.991 main 468 459 O________OP_O_ jtwc_sh SH131969 -12.5000 -177.000 -1 -12.5000 183.000 TC 35 -12.5769 -177.037 2 -12.6000 -177.000 TC 35 7 0
1969008S12179 1969 1 SP MM NOT_NAMED 1969-01-12 09:00:00 TS -12.8888 183.024 main 459 434 P________PP_P_ SH131969 -12.8649 -176.975 -1 -12.8649 -176.975 TC 35 -12.9029 -176.979 2 -12.9224 -176.975 TC 35 7 163
1969008S12179 1969 1 SP MM NOT_NAMED 1969-01-12 12:00:00 TS -13.2000 183.200 main 434 389 O________OO_O_ jtwc_sh SH131969 -13.2000 -176.800 -1 -13.2000 183.200 TC 35 -13.2000 -176.800 2 -13.2000 -176.800 TC 35 7 131
1969008S12179 1969 1 SP MM NOT_NAMED 1969-01-12 15:00:00 TS -13.3653 183.594 main 389 335 P________PP_P_ SH131969 -13.3726 -176.402 -1 -13.3726 -176.402 TC 35 -13.3510 -176.415 2 -13.3651 -176.402 TC 35 9 109
1969008S12179 1969 1 SP MM NOT_NAMED 1969-01-12 18:00:00 TS -13.4941 184.094 main 335 281 O________OP_O_ jtwc_sh SH131969 -13.5000 -175.900 -1 -13.5000 184.100 TC 35 -13.4765 -175.922 2 -13.5000 -175.900 TC 35 10 106
1969008S12179 1969 1 SP MM NOT_NAMED 1969-01-12 21:00:00 TS -13.6435 184.597 main 281 241 P________PP_P_ SH131969 -13.6476 -175.397 -1 -13.6476 -175.397 TC 35 -13.6385 -175.418 2 -13.6401 -175.397 TC 35 10 115
1969008S12179 1969 1 SP MM NOT_NAMED 1969-01-13 00:00:00 TS -13.9000 185.000 main 241 233 O________OO_O_ jtwc_sh SH131969 -13.9000 -175.000 -1 -13.9000 185.000 TC 35 -13.9000 -175.000 2 -13.9000 -175.000 TC 35 9 142
1969008S12179 1969 1 SP MM NOT_NAMED 1969-01-13 03:00:00 TS -14.3577 185.163 main 238 238 P________PP_P_ SH131969 -14.3399 -174.847 -1 -14.3399 -174.847 TC 35 -14.3538 -174.807 2 -14.3974 -174.847 TC 32 11 168
1969008S12179 1969 1 SP MM NOT_NAMED 1969-01-13 06:00:00 TS -14.9274 185.223 main 266 266 O________OP_O_ jtwc_sh SH131969 -14.9000 -174.800 -1 -14.9000 185.200 TC 35 -14.9094 -174.709 2 -15.0000 -174.800 TC 30 12 173
1969008S12179 1969 1 SP MM NOT_NAMED 1969-01-13 09:00:00 TS -15.5207 185.309 main 295 295 P________PP_P_ SH131969 -15.5075 -174.700 -1 -15.5075 -174.700 TC 35 -15.5103 -174.657 2 -15.5575 -174.707 TC 30 12 172
1969008S12179 1969 1 SP MM NOT_NAMED 1969-01-13 12:00:00 TS -16.1000 185.400 main 335 335 O________OO_O_ jtwc_sh SH131969 -16.1000 -174.600 -1 -16.1000 185.400 TC 35 -16.1000 -174.600 2 -16.1000 -174.600 TC 30 11 170
1969008S12179 1969 1 SP MM NOT_NAMED 1969-01-13 15:00:00 TS -16.5721 185.497 main 373 373 P________PP_P_ SH131969 -16.5650 -174.515 -1 -16.5650 -174.515 TC 35 -16.5433 -174.523 2 -16.6150 -174.457 TC 30 9 167
1969008S12179 1969 1 SP MM NOT_NAMED 1969-01-13 18:00:00 TS -17.0186 185.619 main 406 406 O________OP_O_ jtwc_sh SH131969 -17.0000 -174.400 -1 -17.0000 185.600 TC 35 -16.9742 -174.424 2 -17.1000 -174.300 TC 30 9 164
1969008S12179 1969 1 SP MM NOT_NAMED 1969-01-13 21:00:00 TS -17.4588 185.760 main 448 448 P________PP_P_ SH131969 -17.4474 -174.252 -1 -17.4474 -174.252 TC 35 -17.4430 -174.263 2 -17.4973 -174.194 TC 30 11 160
1969008S12179 1969 1 SP MM NOT_NAMED 1969-01-14 00:00:00 TS -18.0000 186.000 main 493 493 O________OO_O_ jtwc_sh SH131969 -18.0000 -174.000 -1 -18.0000 186.000 TC 35 -18.0000 -174.000 2 -18.0000 -174.000 TC 30 14 155
1969008S12179 1969 1 SP MM NOT_NAMED 1969-01-14 03:00:00 TS -18.7656 186.389 main 569 569 P________PP_P_ SH131969 -18.7550 -173.610 -1 -18.7550 -173.610 TC 35 -18.7474 -173.605 2 -18.8050 -173.618 TC 30 18 152
1969008S12179 1969 1 SP MM NOT_NAMED 1969-01-14 06:00:00 TS -19.6194 186.899 main 651 651 O________OP_O_ jtwc_sh SH131969 -19.6000 -173.100 -1 -19.6000 186.900 TC 35 -19.5777 -173.102 2 -19.7000 -173.100 TC 30 20 149
1969008S12179 1969 1 SP MM NOT_NAMED 1969-01-14 09:00:00 TS -20.4435 187.472 main 738 738 P________PP_P_ SH131969 -20.4299 -172.530 -1 -20.4299 -172.530 TC 35 -20.4192 -172.523 2 -20.4949 -172.530 TC 30 19 145
1969008S12179 1969 1 SP MM NOT_NAMED 1969-01-14 12:00:00 TS -21.2000 188.100 main 828 828 O________OO_O_ jtwc_sh SH131969 -21.2000 -171.900 -1 -21.2000 188.100 TC 35 -21.2000 -171.900 2 -21.2000 -171.900 TC 30 18 140
1969008S12179 1969 1 SP MM NOT_NAMED 1969-01-14 15:00:00 TS -21.8269 188.738 main 900 900 P________PP_P_ SH131969 -21.8448 -171.257 -1 -21.8448 -171.257 TC 35 -21.8380 -171.277 2 -21.7798 -171.257 TC 30 17 134
1969008S12179 1969 1 SP MM NOT_NAMED 1969-01-14 18:00:00 TS -22.3762 189.395 main 976 976 O________OP_O_ jtwc_sh SH131969 -22.4000 -170.600 -1 -22.4000 189.400 TC 35 -22.4049 -170.621 2 -22.3000 -170.600 TC 30 16 131
1969008S12179 1969 1 SP MM NOT_NAMED 1969-01-14 21:00:00 TS -22.9034 190.055 main 1046 1046 P________PP_P_ SH131969 -22.9148 -169.942 -1 -22.9148 -169.942 TC 35 -22.9193 -169.955 2 -22.8648 -169.942 TC 30 16 130
1969008S12179 1969 1 SP MM NOT_NAMED 1969-01-15 00:00:00 TS -23.4000 190.700 main 1116 1116 O________OO_O_ jtwc_sh SH131969 -23.4000 -169.300 -1 -23.4000 190.700 TC 35 -23.4000 -169.300 2 -23.4000 -169.300 TC 30 15 131
1969008S12179 1969 1 SP MM NOT_NAMED 1969-01-15 03:00:00 TS -23.9029 191.304 main 1188 1188 P________PP_P_ SH131969 -23.9147 -168.692 -1 -23.9147 -168.692 TC 35 -23.9176 -168.709 2 -23.8647 -168.692 TC 30 15 132
1969008S12179 1969 1 SP MM NOT_NAMED 1969-01-15 06:00:00 TS -24.3756 191.893 main 1261 1261 O________OP_O_ jtwc_sh SH131969 -24.4000 -168.100 -1 -24.4000 191.900 TC 35 -24.4024 -168.129 2 -24.3000 -168.100 TC 30 14 130
1969008S12179 1969 1 SP MM NOT_NAMED 1969-01-15 09:00:00 TS -24.8168 192.480 main 1325 1325 P________PP_P_ SH131969 -24.8296 -167.515 -1 -24.8296 -167.515 TC 35 -24.8362 -167.534 2 -24.7721 -167.515 TC 27 14 127
1969008S12179 1969 1 SP MM NOT_NAMED 1969-01-15 12:00:00 TS -25.2000 193.100 main 1390 1390 O________OO_O_ jtwc_sh SH131969 -25.2000 -166.900 -1 -25.2000 193.100 TC 35 -25.2000 -166.900 2 -25.2000 -166.900 TC 25 14 121
1969008S12179 1969 1 SP MM NOT_NAMED 1969-01-15 15:00:00 TS -25.5307 193.776 main 1450 1450 P________PP_P_ SH131969 -25.5446 -166.230 -1 -25.5446 -166.230 TC 35 -25.4814 -166.207 2 -25.5521 -166.230 TC 25 14 114
1969008S12179 1969 1 SP MM NOT_NAMED 1969-01-15 18:00:00 TS -25.7736 194.509 main 1513 1513 O________OP_O_ jtwc_sh SH131969 -25.8000 -165.500 -1 -25.8000 194.500 TC 35 -25.6945 -165.466 2 -25.8000 -165.500 TC 25 14 106
1969008S12179 1969 1 SP MM NOT_NAMED 1969-01-15 21:00:00 TS -25.9164 195.291 main 1563 1563 P________PP_P_ SH131969 -25.9360 -164.715 -1 -25.9360 -164.715 TC 35 -25.8602 -164.691 2 -25.9335 -164.715 TC 22 14 99
1969008S12179 1969 1 SP MM NOT_NAMED 1969-01-16 00:00:00 TS -26.0000 196.100 main 1615 O________OO_O_ jtwc_sh SH131969 -26.0000 -163.900 -1 -26.0000 196.100 TC 35 -26.0000 -163.900 2 -26.0000 -163.900 TC 20 15 97

デジタル台風データ・検索

IBTrACS Databaseについて

本データベースは、米国NOAAが公開する1842年以降の世界の熱帯低気圧のベストトラックデータアーカイブInternational Best Track Archive for Climate Stewardship (IBTrACS)を、ウェブで閲覧しやすい形式に変換したものです。

最終更新日:2021-10-25